createdAt,value
2019-01-13T00:04:59.366Z,27.54
2019-01-13T00:10:08.375Z,31.88
2019-01-13T00:15:17.326Z,29.50
2019-01-13T00:20:26.347Z,28.97
2019-01-13T00:25:35.282Z,29.43
2019-01-13T00:30:44.246Z,27.95
2019-01-13T00:35:53.186Z,26.16
2019-01-13T00:41:02.205Z,29.41
2019-01-13T00:46:11.126Z,27.27
2019-01-13T00:51:20.118Z,25.29
2019-01-13T00:56:29.067Z,26.73
2019-01-13T01:01:38.043Z,23.07
2019-01-13T01:06:46.987Z,25.10
2019-01-13T01:11:55.938Z,24.50
2019-01-13T01:17:04.886Z,23.89
2019-01-13T01:22:13.822Z,25.88
2019-01-13T01:27:22.794Z,26.48
2019-01-13T01:32:31.727Z,26.10
2019-01-13T01:37:40.742Z,28.37
2019-01-13T01:42:49.694Z,25.64
2019-01-13T01:47:58.732Z,23.09
2019-01-13T01:53:07.671Z,24.63
2019-01-13T01:58:16.605Z,26.95
2019-01-13T02:03:25.550Z,25.63
2019-01-13T02:08:34.502Z,26.90
2019-01-13T02:13:43.438Z,27.12
2019-01-13T02:18:52.390Z,31.49
2019-01-13T02:24:01.346Z,28.18
2019-01-13T02:29:10.354Z,29.48
2019-01-13T02:34:19.282Z,30.61
2019-01-13T02:39:28.247Z,31.57
2019-01-13T02:44:37.185Z,33.02
2019-01-13T02:49:46.158Z,31.77
2019-01-13T02:54:55.084Z,33.84
2019-01-13T03:00:04.040Z,37.09
2019-01-13T03:05:12.978Z,35.56
2019-01-13T03:10:21.922Z,40.93
2019-01-13T03:15:30.875Z,37.31
2019-01-13T03:20:39.816Z,38.14
2019-01-13T03:25:48.760Z,33.88
2019-01-13T03:31:10.675Z,29.44
2019-01-13T03:36:06.189Z,29.65
2019-01-13T03:41:15.119Z,28.26
2019-01-13T03:46:24.070Z,28.32
2019-01-13T03:51:33.022Z,25.54
2019-01-13T03:56:41.954Z,24.24
2019-01-13T04:01:50.882Z,23.41
2019-01-13T04:06:59.828Z,22.69
2019-01-13T04:12:08.767Z,23.08
2019-01-13T04:17:17.769Z,21.44
2019-01-13T04:22:26.711Z,22.47
2019-01-13T04:27:35.679Z,23.14
2019-01-13T04:32:44.615Z,24.42
2019-01-13T04:37:53.600Z,26.96
2019-01-13T04:43:02.541Z,24.45
2019-01-13T04:48:11.569Z,25.45
2019-01-13T04:53:20.514Z,24.01
2019-01-13T04:58:29.475Z,24.17
2019-01-13T05:03:38.436Z,23.22
2019-01-13T05:08:47.373Z,25.54
2019-01-13T05:13:56.350Z,26.61
2019-01-13T05:19:05.286Z,24.73
2019-01-13T05:24:14.267Z,26.52
2019-01-13T05:29:23.214Z,26.63
2019-01-13T05:34:32.167Z,29.17
2019-01-13T05:39:41.108Z,35.07
2019-01-13T05:44:50.110Z,36.26
2019-01-13T05:49:59.051Z,39.12
2019-01-13T05:55:08.034Z,33.64
2019-01-13T06:00:16.993Z,31.96
2019-01-13T06:05:25.942Z,33.31
2019-01-13T06:10:34.919Z,31.80
2019-01-13T06:15:43.862Z,40.24
2019-01-13T06:20:52.819Z,38.47
2019-01-13T06:26:01.789Z,31.03
2019-01-13T06:31:10.710Z,34.59
2019-01-13T06:36:19.643Z,35.04
2019-01-13T06:41:28.602Z,38.22
2019-01-13T06:46:37.547Z,41.29
2019-01-13T06:51:46.522Z,38.41
2019-01-13T06:56:55.551Z,35.43
2019-01-13T07:02:04.467Z,41.11
2019-01-13T07:07:13.447Z,35.69
2019-01-13T07:12:22.378Z,35.61
2019-01-13T07:17:31.330Z,34.07
2019-01-13T07:22:40.329Z,29.49
2019-01-13T07:27:49.254Z,25.87
2019-01-13T07:32:58.215Z,27.27
2019-01-13T07:38:07.142Z,30.39
2019-01-13T07:43:16.134Z,25.96
2019-01-13T07:48:25.083Z,26.61
2019-01-13T07:53:34.118Z,26.06
2019-01-13T07:58:43.073Z,23.60
2019-01-13T08:03:52.017Z,19.13
2019-01-13T08:09:00.970Z,17.30
2019-01-13T08:14:09.966Z,17.98
2019-01-13T08:19:18.912Z,18.67
2019-01-13T08:24:29.101Z,22.20
2019-01-13T08:29:36.486Z,16.56
2019-01-13T08:34:45.599Z,16.74
2019-01-13T08:39:54.551Z,19.45
2019-01-13T08:45:03.543Z,17.16
2019-01-13T08:50:12.487Z,17.55
2019-01-13T08:55:21.458Z,15.57
2019-01-13T09:00:28.918Z,14.62
2019-01-13T09:05:37.954Z,15.98
2019-01-13T09:10:46.947Z,15.82
2019-01-13T09:15:55.899Z,18.50
2019-01-13T09:21:04.855Z,12.12
2019-01-13T09:26:13.822Z,12.87
2019-01-13T09:31:22.746Z,16.73
2019-01-13T09:36:31.794Z,18.45
2019-01-13T09:41:40.741Z,14.57
2019-01-13T09:46:49.718Z,15.32
2019-01-13T09:51:58.678Z,18.09
2019-01-13T09:57:07.689Z,16.51
2019-01-13T10:02:16.605Z,15.87
2019-01-13T10:07:25.652Z,16.91
2019-01-13T10:12:34.598Z,16.95
2019-01-13T10:17:43.567Z,16.91
2019-01-13T10:22:52.506Z,18.17
2019-01-13T10:28:01.549Z,22.22
2019-01-13T10:33:10.494Z,18.52
2019-01-13T10:38:19.439Z,24.31
2019-01-13T10:43:28.374Z,25.22
2019-01-13T10:48:37.419Z,21.89
2019-01-13T10:53:46.364Z,24.14
2019-01-13T10:58:55.342Z,20.64
2019-01-13T11:04:04.290Z,20.62
2019-01-13T11:09:13.323Z,22.08
2019-01-13T11:14:22.274Z,21.08
2019-01-13T11:19:31.330Z,17.79
2019-01-13T11:24:40.261Z,17.81
2019-01-13T11:29:49.316Z,15.89
2019-01-13T11:34:58.242Z,20.54
2019-01-13T11:40:07.248Z,15.31
2019-01-13T11:45:16.162Z,15.28
2019-01-13T11:50:25.275Z,14.66
2019-01-13T11:55:34.204Z,15.51
2019-01-13T12:00:43.194Z,13.47
2019-01-13T12:05:52.143Z,15.84
2019-01-13T12:11:01.106Z,17.36
2019-01-13T12:16:10.058Z,12.13
2019-01-13T12:21:19.054Z,17.80
2019-01-13T12:26:28.006Z,16.53
2019-01-13T12:31:36.986Z,17.12
2019-01-13T12:36:45.952Z,19.28
2019-01-13T12:41:54.886Z,17.87
2019-01-13T12:47:03.809Z,13.38
2019-01-13T12:52:12.788Z,18.19
2019-01-13T12:57:21.750Z,13.53
2019-01-13T13:02:30.682Z,16.44
2019-01-13T13:07:39.638Z,13.89
2019-01-13T13:12:48.607Z,14.98
2019-01-13T13:17:57.579Z,15.22
2019-01-13T13:23:06.810Z,11.01
2019-01-13T13:28:15.757Z,11.17
2019-01-13T13:33:24.800Z,13.33
2019-01-13T13:38:33.750Z,14.88
2019-01-13T13:43:42.782Z,12.34
2019-01-13T13:48:52.981Z,16.46
2019-01-13T13:54:00.200Z,14.20
2019-01-13T13:59:09.138Z,11.27
2019-01-13T14:04:18.147Z,11.78
2019-01-13T14:09:27.107Z,12.92
2019-01-13T14:14:36.118Z,11.99
2019-01-13T14:19:46.099Z,11.38
2019-01-13T14:30:04.102Z,11.50
2019-01-13T14:35:13.152Z,15.68
2019-01-13T14:40:22.112Z,14.11
2019-01-13T14:45:31.079Z,14.66
2019-01-13T14:50:40.003Z,18.09
2019-01-13T14:55:49.001Z,14.95
2019-01-13T15:06:06.934Z,16.15
2019-01-13T15:11:15.862Z,13.41
2019-01-13T15:16:24.855Z,15.25
2019-01-13T15:21:33.807Z,15.85
2019-01-13T15:26:42.814Z,10.12
2019-01-13T15:31:51.736Z,12.46
2019-01-13T15:37:00.726Z,13.55
2019-01-13T15:42:09.650Z,13.11
2019-01-13T15:47:18.675Z,14.33
2019-01-13T15:52:27.602Z,15.74
2019-01-13T15:57:36.582Z,11.48
2019-01-13T16:02:45.510Z,17.88
2019-01-13T16:07:54.566Z,13.59
2019-01-13T16:13:03.514Z,13.80
2019-01-13T16:18:12.541Z,11.80
2019-01-13T16:23:21.510Z,13.73
2019-01-13T16:28:30.532Z,12.03
2019-01-13T16:33:39.487Z,11.59
2019-01-13T16:38:48.550Z,11.78
2019-01-13T16:43:57.505Z,15.04
2019-01-13T16:49:06.594Z,11.63
2019-01-13T16:54:15.527Z,14.04
2019-01-13T16:59:24.582Z,9.49
2019-01-13T17:04:33.533Z,9.22
2019-01-13T17:09:42.558Z,12.79
2019-01-13T17:14:51.522Z,10.76
2019-01-13T17:20:00.623Z,9.04
2019-01-13T17:25:09.570Z,11.28
2019-01-13T17:30:18.563Z,11.11
2019-01-13T17:35:27.506Z,11.16
2019-01-13T17:40:36.495Z,13.14
2019-01-13T17:45:45.407Z,10.75
2019-01-13T17:50:54.370Z,9.64
2019-01-13T17:56:03.366Z,11.26
2019-01-13T18:01:12.310Z,11.34
2019-01-13T18:06:21.273Z,13.21
2019-01-13T18:11:30.255Z,11.18
2019-01-13T18:16:39.195Z,9.77
2019-01-13T18:21:48.179Z,12.29
2019-01-13T18:26:57.140Z,13.78
2019-01-13T18:32:06.143Z,13.61
2019-01-13T18:37:15.119Z,4.05
2019-01-13T18:42:24.086Z,4.52
2019-01-13T18:47:33.038Z,4.71
2019-01-13T18:52:42.048Z,6.86
2019-01-13T18:57:50.994Z,8.55
2019-01-13T19:03:00.084Z,8.78
2019-01-13T19:08:09.036Z,8.40
2019-01-13T19:13:19.485Z,9.53
2019-01-13T19:18:18.471Z,10.15
2019-01-13T19:23:27.455Z,12.24
2019-01-13T19:28:36.390Z,14.30
2019-01-13T19:33:45.394Z,14.12
2019-01-13T19:38:54.343Z,12.79
2019-01-13T19:44:03.470Z,14.98
2019-01-13T19:49:12.430Z,16.06
2019-01-13T19:54:21.395Z,14.89
2019-01-13T19:59:32.329Z,15.40
2019-01-13T20:04:31.350Z,16.65
2019-01-13T20:09:40.299Z,12.71
2019-01-13T20:14:49.313Z,16.58
2019-01-13T20:19:58.258Z,10.85
2019-01-13T20:25:07.286Z,15.22
2019-01-13T20:30:16.222Z,12.53
2019-01-13T20:35:25.299Z,16.92
2019-01-13T20:40:34.237Z,13.50
2019-01-13T20:45:43.287Z,18.75
2019-01-13T20:50:52.211Z,19.64
2019-01-13T20:56:01.269Z,19.11
2019-01-13T21:01:10.162Z,16.51
2019-01-13T21:06:17.695Z,20.08
2019-01-13T21:11:26.667Z,16.89
2019-01-13T21:16:35.746Z,17.69
2019-01-13T21:21:44.714Z,19.22
2019-01-13T21:26:53.806Z,16.84
2019-01-13T21:32:02.751Z,19.25
2019-01-13T21:37:11.699Z,21.82
2019-01-13T21:42:20.726Z,19.28
2019-01-13T21:47:29.679Z,21.57
2019-01-13T21:52:38.735Z,17.07
2019-01-13T21:57:47.704Z,21.87
2019-01-13T22:02:56.670Z,17.07
2019-01-13T22:08:05.617Z,23.59
2019-01-13T22:13:14.599Z,21.53
2019-01-13T22:18:23.553Z,17.18
2019-01-13T22:23:32.659Z,18.11
2019-01-13T22:28:41.615Z,19.28
2019-01-13T22:33:50.603Z,20.71
2019-01-13T22:38:59.554Z,19.74
2019-01-13T22:44:08.587Z,22.73
2019-01-13T22:49:17.904Z,23.69
2019-01-13T22:54:26.945Z,19.16
2019-01-13T22:59:35.900Z,23.51
2019-01-13T23:04:44.896Z,21.89
2019-01-13T23:09:53.801Z,18.44
2019-01-13T23:15:02.906Z,22.42
2019-01-13T23:20:11.863Z,22.73
2019-01-13T23:25:20.822Z,22.35
2019-01-13T23:30:29.771Z,23.39
2019-01-13T23:35:38.719Z,24.95
2019-01-13T23:40:47.667Z,18.50
2019-01-13T23:45:56.622Z,22.36
2019-01-13T23:51:05.583Z,19.86
2019-01-13T23:56:14.522Z,17.83
